createdAt,value
2019-04-22T00:02:28.102Z,99.90
2019-04-22T00:05:07.313Z,99.90
2019-04-22T00:08:00.440Z,99.90
2019-04-22T00:10:26.495Z,99.90
2019-04-22T00:13:00.062Z,99.90
2019-04-22T00:15:27.244Z,99.30
2019-04-22T00:18:07.416Z,99.90
2019-04-22T00:20:37.024Z,99.90
2019-04-22T00:23:09.819Z,99.90
2019-04-22T00:25:45.941Z,99.90
2019-04-22T00:28:10.792Z,99.90
2019-04-22T00:30:41.913Z,99.90
2019-04-22T00:33:13.363Z,99.90
2019-04-22T00:35:41.397Z,99.90
2019-04-22T00:38:17.316Z,99.90
2019-04-22T00:40:52.315Z,99.90
2019-04-22T00:43:19.226Z,99.90
2019-04-22T00:45:49.181Z,99.90
2019-04-22T00:51:05.759Z,99.90
2019-04-22T00:53:30.147Z,99.90
2019-04-22T00:56:07.434Z,99.90
2019-04-22T00:58:37.858Z,99.90
2019-04-22T01:01:14.366Z,99.90
2019-04-22T01:06:16.109Z,99.90
2019-04-22T01:08:51.248Z,99.90
2019-04-22T01:11:16.814Z,99.90
2019-04-22T01:13:44.205Z,99.90
2019-04-22T01:16:21.651Z,99.90
2019-04-22T01:18:48.759Z,99.90
2019-04-22T01:21:23.159Z,99.90
2019-04-22T01:23:52.092Z,99.90
2019-04-22T01:26:25.449Z,99.90
2019-04-22T01:28:53.462Z,99.90
2019-04-22T01:31:18.155Z,99.90
2019-04-22T01:33:58.625Z,99.90
2019-04-22T01:36:35.284Z,99.90
2019-04-22T01:39:10.710Z,99.90
2019-04-22T01:41:48.406Z,99.90
2019-04-22T01:44:26.505Z,99.90
2019-04-22T01:49:25.671Z,99.90
2019-04-22T01:56:53.813Z,99.90
2019-04-22T01:59:15.446Z,99.90
2019-04-22T02:01:55.068Z,99.90
2019-04-22T02:04:35.398Z,99.90
2019-04-22T02:07:00.201Z,99.90
2019-04-22T02:09:31.371Z,99.90
2019-04-22T02:12:00.414Z,99.90
2019-04-22T02:14:34.115Z,99.90
2019-04-22T02:17:01.333Z,99.90
2019-04-22T02:19:53.241Z,99.90
2019-04-22T02:22:04.218Z,99.90
2019-04-22T02:24:39.919Z,99.90
2019-04-22T02:27:10.751Z,99.90
2019-04-22T02:29:43.468Z,99.90
2019-04-22T02:32:21.603Z,99.90
2019-04-22T02:34:56.924Z,99.90
2019-04-22T02:39:48.955Z,99.90
2019-04-22T02:42:13.650Z,99.90
2019-04-22T02:44:58.455Z,99.90
2019-04-22T02:47:20.773Z,99.90
2019-04-22T02:49:53.678Z,99.90
2019-04-22T02:52:41.235Z,99.90
2019-04-22T02:57:39.929Z,99.90
2019-04-22T03:00:10.224Z,99.90
2019-04-22T03:05:27.846Z,99.90
2019-04-22T03:08:02.416Z,99.90
2019-04-22T03:10:33.470Z,99.90
2019-04-22T03:12:54.212Z,99.90
2019-04-22T03:15:20.285Z,99.90
2019-04-22T03:18:02.966Z,99.90
2019-04-22T03:20:25.197Z,99.90
2019-04-22T03:23:08.753Z,99.90
2019-04-22T03:27:58.269Z,99.90
2019-04-22T03:30:56.704Z,99.90
2019-04-22T03:35:50.008Z,99.90
2019-04-22T03:38:34.114Z,99.90
2019-04-22T03:41:03.222Z,99.90
2019-04-22T03:43:43.773Z,99.90
2019-04-22T03:45:37.847Z,99.90
2019-04-22T03:48:16.038Z,99.90
2019-04-22T03:50:49.033Z,99.90
2019-04-22T03:53:26.072Z,99.90
2019-04-22T03:55:59.772Z,99.90
2019-04-22T03:58:21.574Z,99.90
2019-04-22T04:03:30.577Z,99.90
2019-04-22T04:08:46.417Z,99.90
2019-04-22T04:13:33.869Z,99.90
2019-04-22T04:16:07.093Z,99.90
2019-04-22T04:21:20.859Z,99.90
2019-04-22T04:23:50.495Z,99.90
2019-04-22T04:26:17.732Z,99.90
2019-04-22T04:28:51.032Z,99.90
2019-04-22T04:33:46.556Z,99.90
2019-04-22T04:36:23.701Z,99.90
2019-04-22T04:41:29.083Z,99.90
2019-04-22T04:44:04.367Z,99.90
2019-04-22T04:49:02.748Z,99.90
2019-04-22T04:51:33.321Z,99.90
2019-04-22T04:54:09.743Z,99.90
2019-04-22T04:59:05.544Z,99.90
2019-04-22T05:01:30.731Z,99.90
2019-04-22T05:06:46.688Z,99.90
2019-04-22T05:16:42.527Z,99.90
2019-04-22T05:19:10.528Z,99.90
2019-04-22T05:21:29.615Z,99.90
2019-04-22T05:26:40.285Z,99.90
2019-04-22T05:29:15.056Z,99.90
2019-04-22T05:31:44.633Z,99.90
2019-04-22T05:34:14.398Z,99.90
2019-04-22T05:36:41.279Z,99.90
2019-04-22T05:39:12.442Z,99.90
2019-04-22T05:41:41.522Z,99.90
2019-04-22T05:44:14.520Z,99.90
2019-04-22T05:46:47.571Z,99.90
2019-04-22T05:49:21.555Z,99.90
2019-04-22T05:51:48.414Z,99.90
2019-04-22T05:54:25.250Z,99.90
2019-04-22T05:56:42.937Z,99.90
2019-04-22T05:59:28.990Z,99.90
2019-04-22T06:01:59.718Z,99.90
2019-04-22T06:04:25.548Z,99.90
2019-04-22T06:06:53.799Z,99.90
2019-04-22T06:09:28.813Z,99.90
2019-04-22T06:11:58.886Z,99.90
2019-04-22T06:14:30.799Z,99.90
2019-04-22T06:17:10.617Z,99.90
2019-04-22T06:19:38.212Z,99.90
2019-04-22T06:22:13.103Z,99.90
2019-04-22T06:24:43.730Z,99.90
2019-04-22T06:27:28.789Z,99.90
2019-04-22T06:29:55.298Z,99.90
2019-04-22T06:35:15.355Z,99.90
2019-04-22T06:37:33.664Z,99.90
2019-04-22T06:40:01.109Z,99.90
2019-04-22T06:42:40.008Z,99.90
2019-04-22T06:45:04.178Z,99.90
2019-04-22T06:50:07.658Z,99.90
2019-04-22T06:52:41.947Z,99.90
2019-04-22T06:55:15.127Z,97.50
2019-04-22T06:57:45.007Z,93.80
2019-04-22T07:00:14.239Z,86.30
2019-04-22T07:02:56.078Z,89.80
2019-04-22T07:05:16.633Z,87.50
2019-04-22T07:07:44.970Z,85.20
2019-04-22T07:10:30.193Z,80.70
2019-04-22T07:12:49.200Z,81.20
2019-04-22T07:15:40.131Z,78.10
2019-04-22T07:17:56.816Z,76.40
2019-04-22T07:20:28.509Z,71.30
2019-04-22T07:22:51.461Z,70.50
2019-04-22T07:25:23.621Z,70.90
2019-04-22T07:28:13.821Z,74.30
2019-04-22T07:30:26.998Z,73.30
2019-04-22T07:33:12.759Z,69.90
2019-04-22T07:35:36.016Z,70.30
2019-04-22T07:38:05.758Z,70.40
2019-04-22T07:40:40.603Z,71.20
2019-04-22T07:43:11.946Z,71.80
2019-04-22T07:45:44.244Z,71.40
2019-04-22T07:48:22.575Z,68.10
2019-04-22T07:53:10.474Z,64.70
2019-04-22T07:55:46.785Z,66.40
2019-04-22T07:58:18.681Z,64.90
2019-04-22T08:00:44.802Z,64.20
2019-04-22T08:03:26.718Z,66.90
2019-04-22T08:05:58.663Z,62.70
2019-04-22T08:08:27.573Z,61.20
2019-04-22T08:10:58.027Z,61.60
2019-04-22T08:13:38.799Z,60.80
2019-04-22T08:18:57.627Z,59.80
2019-04-22T08:21:12.305Z,80.10
2019-04-22T08:23:44.278Z,65.50
2019-04-22T08:26:06.642Z,60.10
2019-04-22T08:28:50.848Z,61.90
2019-04-22T08:31:14.948Z,58.30
2019-04-22T08:33:49.653Z,59.70
2019-04-22T08:36:19.302Z,60.10
2019-04-22T08:38:52.833Z,60.10
2019-04-22T08:59:07.935Z,62.40
2019-04-22T09:01:32.736Z,63.40
2019-04-22T09:04:10.082Z,65.10
2019-04-22T09:06:49.374Z,63.90
2019-04-22T09:09:11.417Z,64.10
2019-04-22T09:11:41.513Z,62.40
2019-04-22T09:16:46.308Z,61.60
2019-04-22T09:19:12.621Z,60.90
2019-04-22T09:21:52.351Z,73.70
2019-04-22T09:24:16.503Z,64.50
2019-04-22T09:26:47.486Z,65.90
2019-04-22T09:29:28.005Z,66.20
2019-04-22T09:31:57.075Z,66.70
2019-04-22T09:34:23.457Z,60.60
2019-04-22T09:37:07.831Z,64.40
2019-04-22T09:39:29.653Z,57.40
2019-04-22T09:41:59.600Z,56.90
2019-04-22T09:44:31.125Z,58.50
2019-04-22T09:47:00.036Z,57.00
2019-04-22T09:49:37.101Z,55.70
2019-04-22T09:52:08.944Z,57.80
2019-04-22T09:54:51.056Z,55.40
2019-04-22T09:57:10.969Z,54.80
2019-04-22T09:59:43.695Z,51.80
2019-04-22T10:04:40.482Z,53.30
2019-04-22T10:07:17.106Z,52.00
2019-04-22T10:10:03.197Z,47.50
2019-04-22T10:12:20.590Z,47.20
2019-04-22T10:17:20.306Z,45.00
2019-04-22T10:19:51.126Z,45.60
2019-04-22T10:22:29.096Z,45.30
2019-04-22T10:24:53.621Z,44.00
2019-04-22T10:27:24.010Z,45.00
2019-04-22T10:32:27.949Z,45.80
2019-04-22T10:34:43.651Z,47.90
2019-04-22T10:37:11.719Z,52.40
2019-04-22T10:39:48.076Z,53.60
2019-04-22T10:42:13.207Z,48.70
2019-04-22T10:44:45.152Z,48.40
2019-04-22T10:47:14.272Z,46.50
2019-04-22T10:49:44.475Z,47.30
2019-04-22T10:52:14.224Z,45.10
2019-04-22T10:54:45.385Z,45.80
2019-04-22T10:57:15.944Z,46.70
2019-04-22T10:59:46.893Z,46.70
2019-04-22T11:02:17.353Z,46.70
2019-04-22T11:04:48.142Z,45.80
2019-04-22T11:07:19.392Z,46.90
2019-04-22T11:09:59.237Z,45.00
2019-04-22T11:12:24.422Z,48.40
2019-04-22T11:14:51.950Z,46.10
2019-04-22T11:17:21.818Z,49.10
2019-04-22T11:19:51.685Z,50.40
2019-04-22T11:22:26.498Z,46.40
2019-04-22T11:24:53.344Z,43.90
2019-04-22T11:27:25.380Z,47.20
2019-04-22T11:29:55.472Z,48.30
2019-04-22T11:32:26.467Z,50.90
2019-04-22T11:34:56.305Z,49.90
2019-04-22T11:37:25.956Z,99.90
2019-04-22T11:40:09.187Z,48.40
2019-04-22T11:42:28.112Z,48.70
2019-04-22T11:44:59.237Z,47.70
2019-04-22T11:47:29.690Z,47.10
2019-04-22T11:49:59.771Z,49.10
2019-04-22T11:52:30.836Z,50.10
2019-04-22T11:55:01.099Z,48.70
2019-04-22T11:57:30.901Z,47.00
2019-04-22T12:00:01.024Z,45.40
2019-04-22T12:02:33.108Z,48.60
2019-04-22T12:05:03.795Z,46.90
2019-04-22T12:07:35.270Z,48.30
2019-04-22T12:10:17.899Z,49.70
2019-04-22T12:12:39.591Z,48.30
2019-04-22T12:15:10.701Z,44.80
2019-04-22T12:17:40.543Z,46.30
2019-04-22T12:20:14.014Z,48.90
2019-04-22T12:22:42.921Z,46.40
2019-04-22T12:25:22.365Z,46.60
2019-04-22T12:27:45.627Z,48.80
2019-04-22T12:30:19.771Z,45.50
2019-04-22T12:32:50.537Z,48.00
2019-04-22T12:35:20.812Z,47.30
2019-04-22T12:37:55.682Z,48.40
2019-04-22T12:40:36.660Z,47.40
2019-04-22T12:42:53.740Z,46.50
2019-04-22T12:45:26.669Z,47.00
2019-04-22T12:47:57.849Z,48.60
2019-04-22T12:50:32.935Z,48.60
2019-04-22T12:53:04.856Z,46.40
2019-04-22T12:55:32.281Z,46.00
2019-04-22T12:58:02.934Z,44.80
2019-04-22T13:00:34.220Z,46.30
2019-04-22T13:03:05.207Z,47.30
2019-04-22T13:05:35.310Z,45.80
2019-04-22T13:08:05.636Z,44.40
2019-04-22T13:10:47.297Z,45.10
2019-04-22T13:13:07.100Z,44.50
2019-04-22T13:15:57.119Z,45.30
2019-04-22T13:18:34.008Z,45.40
2019-04-22T13:20:58.078Z,42.90
2019-04-22T13:23:27.883Z,42.00
2019-04-22T13:25:58.850Z,42.90
2019-04-22T13:28:29.271Z,44.70
2019-04-22T13:31:01.767Z,41.80
2019-04-22T13:33:30.556Z,44.90
2019-04-22T13:36:01.610Z,43.10
2019-04-22T13:38:31.352Z,40.20
2019-04-22T13:41:16.501Z,40.10
2019-04-22T13:43:32.324Z,43.30
2019-04-22T13:46:01.945Z,45.20
2019-04-22T13:48:56.223Z,43.70
2019-04-22T13:55:05.737Z,46.00
2019-04-22T13:56:25.714Z,45.70
2019-04-22T13:58:48.524Z,43.90
2019-04-22T14:01:12.775Z,41.40
2019-04-22T14:03:44.832Z,42.40
2019-04-22T14:06:14.501Z,43.00
2019-04-22T14:08:45.179Z,44.80
2019-04-22T14:11:26.009Z,46.50
2019-04-22T14:13:46.362Z,45.90
2019-04-22T14:16:17.149Z,45.00
2019-04-22T14:18:47.747Z,45.30
2019-04-22T14:21:18.790Z,39.70
2019-04-22T14:23:48.773Z,39.70
2019-04-22T14:26:19.657Z,43.00
2019-04-22T14:28:50.072Z,43.90
2019-04-22T14:31:20.361Z,44.60
2019-04-22T14:33:54.844Z,41.60
2019-04-22T14:36:21.479Z,41.30
2019-04-22T14:38:52.314Z,44.30
2019-04-22T14:44:08.380Z,45.70
2019-04-22T14:45:08.244Z,47.20
2019-04-22T14:46:57.831Z,45.90
2019-04-22T14:49:26.602Z,46.80
2019-04-22T14:51:51.836Z,47.30
2019-04-22T14:54:15.673Z,46.80
2019-04-22T14:56:30.534Z,45.00
2019-04-22T14:59:00.783Z,45.00
2019-04-22T15:01:30.754Z,46.90
2019-04-22T15:04:00.866Z,48.80
2019-04-22T15:06:31.827Z,48.00
2019-04-22T15:09:01.919Z,45.80
2019-04-22T15:11:43.741Z,44.60
2019-04-22T15:14:03.249Z,45.40
2019-04-22T15:16:44.834Z,45.10
2019-04-22T15:19:25.592Z,45.10
2019-04-22T15:21:56.630Z,44.50
2019-04-22T15:24:27.470Z,43.70
2019-04-22T15:26:58.576Z,46.10
2019-04-22T15:29:29.653Z,49.40
2019-04-22T15:31:59.923Z,52.20
2019-04-22T16:35:35.071Z,46.30
2019-04-22T16:38:06.614Z,45.20
2019-04-22T16:40:36.800Z,44.90
2019-04-22T16:43:08.317Z,44.60
2019-04-22T16:45:37.831Z,43.40
2019-04-22T16:48:07.669Z,43.60
2019-04-22T16:50:40.918Z,43.40
2019-04-22T16:53:08.630Z,42.50
2019-04-22T16:55:39.147Z,41.90
2019-04-22T16:58:10.655Z,42.70
2019-04-22T17:00:40.756Z,43.20
2019-04-22T17:03:22.500Z,42.70
2019-04-22T17:06:13.755Z,42.80
2019-04-22T17:08:44.481Z,43.40
2019-04-22T17:11:14.235Z,43.50
2019-04-22T17:13:44.634Z,44.00
2019-04-22T17:16:15.980Z,43.80
2019-04-22T17:18:47.114Z,43.50
2019-04-22T17:21:17.581Z,43.10
2019-04-22T17:23:47.670Z,42.90
2019-04-22T17:26:18.720Z,43.30
2019-04-22T17:28:49.391Z,43.50
2019-04-22T17:31:20.535Z,43.00
2019-04-22T17:33:50.828Z,43.50
2019-04-22T17:36:20.622Z,43.20
2019-04-22T17:38:59.983Z,44.20
2019-04-22T17:41:34.590Z,44.00
2019-04-22T17:44:18.873Z,43.70
2019-04-22T17:46:54.801Z,44.90
2019-04-22T17:49:46.990Z,44.20
2019-04-22T17:54:50.186Z,45.10
2019-04-22T17:57:21.719Z,44.80
2019-04-22T17:59:50.619Z,44.90
2019-04-22T18:02:22.352Z,46.20
2019-04-22T18:04:45.435Z,46.70
2019-04-22T18:10:23.726Z,47.90
2019-04-22T18:12:40.268Z,48.00
2019-04-22T18:15:07.150Z,50.50
2019-04-22T18:17:35.447Z,49.30
2019-04-22T18:19:58.263Z,49.20
2019-04-22T18:22:24.434Z,49.20
2019-04-22T18:24:56.847Z,49.00
2019-04-22T18:27:49.000Z,49.50
2019-04-22T18:30:04.045Z,49.70
2019-04-22T18:32:41.420Z,50.10
2019-04-22T18:35:11.790Z,50.50
2019-04-22T18:37:43.746Z,51.30
2019-04-22T18:40:14.616Z,50.90
2019-04-22T18:42:49.362Z,51.10
2019-04-22T18:45:39.619Z,50.80
2019-04-22T18:47:44.221Z,51.10
2019-04-22T18:50:20.273Z,51.00
2019-04-22T18:52:53.284Z,51.00
2019-04-22T18:55:28.133Z,51.70
2019-04-22T18:58:02.695Z,50.80
2019-04-22T19:00:27.454Z,51.00
2019-04-22T19:03:03.858Z,50.60
2019-04-22T19:05:45.294Z,51.90
2019-04-22T19:08:23.138Z,51.90
2019-04-22T19:13:53.810Z,51.40
2019-04-22T19:16:14.273Z,51.90
2019-04-22T19:21:03.034Z,51.70
2019-04-22T19:23:34.027Z,51.20
2019-04-22T19:25:59.636Z,51.50
2019-04-22T19:28:35.815Z,51.70
2019-04-22T19:31:09.605Z,51.60
2019-04-22T19:33:34.560Z,51.30
2019-04-22T19:36:10.749Z,51.00
2019-04-22T19:38:28.908Z,51.00
2019-04-22T19:41:29.428Z,51.20
2019-04-22T19:44:05.572Z,50.00
2019-04-22T19:46:26.794Z,49.90
2019-04-22T19:49:29.342Z,50.60
2019-04-22T19:51:54.049Z,50.50
2019-04-22T19:54:20.486Z,51.60
2019-04-22T19:56:40.354Z,50.70
2019-04-22T19:59:11.893Z,50.60
2019-04-22T20:02:04.792Z,50.90
2019-04-22T20:04:49.406Z,50.60
2019-04-22T20:07:12.600Z,50.70
2019-04-22T20:09:50.129Z,51.00
2019-04-22T20:12:18.930Z,50.90
2019-04-22T20:14:50.721Z,50.60
2019-04-22T20:17:24.480Z,50.70
2019-04-22T20:19:59.129Z,50.80
2019-04-22T20:22:17.847Z,50.60
2019-04-22T20:24:43.561Z,51.90
2019-04-22T20:27:23.753Z,50.70
2019-04-22T20:30:00.208Z,50.90
2019-04-22T20:32:26.323Z,50.90
2019-04-22T20:35:05.994Z,51.00
2019-04-22T20:37:36.824Z,51.00
2019-04-22T20:40:00.271Z,51.40
2019-04-22T20:45:04.257Z,51.70
2019-04-22T20:47:30.480Z,51.80
2019-04-22T20:50:05.311Z,51.50
2019-04-22T20:52:50.399Z,50.80
2019-04-22T20:55:03.066Z,51.10
2019-04-22T20:57:40.427Z,51.40
2019-04-22T21:00:11.591Z,51.20
2019-04-22T21:02:32.620Z,51.30
2019-04-22T21:05:01.953Z,51.40
2019-04-22T21:07:41.314Z,52.00
2019-04-22T21:10:13.226Z,51.10
2019-04-22T21:12:39.977Z,52.00
2019-04-22T21:15:26.377Z,52.50
2019-04-22T21:17:54.444Z,52.00
2019-04-22T21:20:26.243Z,51.60
2019-04-22T21:22:58.242Z,52.30
2019-04-22T21:25:19.562Z,51.90
2019-04-22T21:28:01.451Z,52.00
2019-04-22T21:30:28.801Z,51.90
2019-04-22T21:32:57.994Z,54.00
2019-04-22T21:35:51.854Z,54.30
2019-04-22T21:38:09.774Z,55.30
2019-04-22T21:40:37.712Z,55.50
2019-04-22T21:43:07.128Z,56.80
2019-04-22T21:45:30.619Z,58.10
2019-04-22T21:48:20.336Z,57.80
2019-04-22T21:50:47.941Z,59.80
2019-04-22T21:53:20.442Z,60.00
2019-04-22T21:55:50.727Z,60.70
2019-04-22T21:58:21.387Z,59.20
2019-04-22T22:00:57.820Z,57.20
2019-04-22T22:03:24.876Z,55.60
2019-04-22T22:05:47.209Z,56.20
2019-04-22T22:08:38.716Z,57.90
2019-04-22T22:11:01.142Z,57.10
2019-04-22T22:13:31.646Z,56.00
2019-04-22T22:15:58.834Z,57.20
2019-04-22T22:18:30.652Z,58.40
2019-04-22T22:21:19.046Z,57.80
2019-04-22T22:23:40.900Z,58.60
2019-04-22T22:26:04.072Z,62.20
2019-04-22T22:28:58.575Z,61.30
2019-04-22T22:31:15.478Z,61.50
2019-04-22T22:33:42.262Z,66.00
2019-04-22T22:36:15.724Z,63.80
2019-04-22T22:38:43.807Z,64.50
2019-04-22T22:40:54.575Z,61.70
2019-04-22T22:43:33.623Z,67.60
2019-04-22T22:46:11.807Z,71.00
2019-04-22T22:48:51.523Z,70.70
2019-04-22T22:51:30.636Z,69.60
2019-04-22T22:53:57.038Z,64.50
2019-04-22T22:56:25.402Z,66.00
2019-04-22T22:58:52.803Z,62.20
2019-04-22T23:01:29.931Z,61.60
2019-04-22T23:03:58.489Z,61.50
2019-04-22T23:06:37.235Z,60.70
2019-04-22T23:09:05.742Z,59.40
2019-04-22T23:11:46.366Z,58.30
2019-04-22T23:14:05.324Z,58.90
2019-04-22T23:16:26.912Z,60.00
2019-04-22T23:19:05.110Z,59.50
2019-04-22T23:21:43.313Z,58.60
2019-04-22T23:24:35.965Z,58.70
2019-04-22T23:27:03.188Z,59.70
2019-04-22T23:29:41.194Z,58.70
2019-04-22T23:32:14.203Z,58.30
2019-04-22T23:34:49.412Z,58.20
2019-04-22T23:37:19.129Z,57.20
2019-04-22T23:40:04.134Z,57.10
2019-04-22T23:42:27.242Z,57.20
2019-04-22T23:45:04.357Z,56.80
2019-04-22T23:47:26.429Z,57.20
2019-04-22T23:50:06.339Z,57.70
2019-04-22T23:52:43.256Z,58.20
2019-04-22T23:55:17.842Z,58.20
2019-04-22T23:57:52.941Z,59.20
